Skip Navigation Links
NOAA logo - Click to go to the NOAA homepage
NOAA's National Weather Service
Alaska Aviation Weather Unit
  NWS logo - Click to go to the NWS homepage
Left Navbar Graphic     00 AKDT = 08 GMT

   
NOAA is celebrating 200 years of science, service, and stewardship. Visit the NOAA 200th celebration Web site to learn more.
USA.gov is the U.S. Government's official Web portal to all Federal, state and local government Web resources and services.
Facebook
NWS on Facebook

Important Change Regarding the AAWU Web Presence

 

Over the last several months, the AAWU has been working to navigate its webpages to a nationally supported server. Security, as well as other needs, have necessitated the change.  We have been given an extension for the site changeover while we diligently work at addressing feedback received. As of July 14, 2017, aawu.arh.noaa.gov will be discontinued. The new AAWU web address is weather.gov/aawu. It is now live and will run in-parallel with the old site until it is discontinued on July 14, 2017. Please continue to send any feedback or questions regarding the new webpages to nws.ar.aawu.webauthors@noaa.gov.  Thank you for your patience during this time of transition.
AAWU Home :: Display TAF Add Bookmark
TAF PAKT 240526Z 2406/2506  13015G22KT 5SM -RA BR FEW007 OVC015
      WS020/21040KT
      TEMPO 2406/2410 3SM RA BR
     FM241300 14010KT 4SM -SHRA BR OVC010
     FM250400 14005KT 6SM BR VCSH OVC008
      AMD LTD TO CLD VIS AND WIND 2406/2415=

2585
FTAK31 PAJN 240526
TAFAPG
TAF

METAR PAKT 240253Z 12013KT 4SM RA BR SCT007 SCT014 OVC024 13/13 A2987= METAR PAKT 240353Z 13015G23KT 4SM RA BR FEW007 SCT013 OVC019 13/13 A2987= METAR PAKT 240453Z 13017KT 6SM -RA BR SCT014 OVC018 13/12 A2986= METAR PAKT 240553Z AUTO 13013G22KT 4SM -RA BR SCT014 OVC020 13/12 A2986= PAKT 240558Z AUTO 13017G22KT 4SM -RA BR FEW007 BKN012 OVC016 13/12 A2986= METAR PAKT 240653Z AUTO 13016G23KT 4SM RA BR FEW010 OVC016 13/13 A2987= METAR PAKT 240753Z AUTO 13013KT 5SM RA BR OVC019 13/12 A2987=
 Alaska TAF Map

NOAA's National Weather Service
Alaska Aviation Weather Unit
6930 Sand Lake Road
Anchorage, AK 99502-1845
Disclaimer
Credits
Glossary
Privacy Policy
About Us
Career Opportunities
Contact AAWU Internet Services Site last modified: April, 17th 2012